Skaelskor, Denmark
Current Conditions -  °F | °C
As of 12:50 AM on Sunday 26 Oct 2014 (Local Time) from EKRK Reporting Station
Moderate Fog Moderate Fog  
Wind Chill: 48°   Ceiling: Unl
Heat Index: 48°   Visibility: 0.37mi
Dew Point: 48°   Wind: 3mph
Humidity: 100%   Direction: 190°S
Pressure: 30.09"   Gusts: NA
Location:  55.25°N, 11.29°E
Report Text: EKRK 252250Z AUTO 19003KT 0600NDV R11/P1500N R29/P1500NFG NCD 09/09 Q1019
Loading
Personal Weather Stations






























Interactive Weather Map
Tropical Storm Tracking
New forecast layout! Learn more

10-Day Weather Forecast

Advertisements
Track Severe Weather on mobile